Station: ELLX - 23/08/2019 16:20Z (il y a 29 minutes)
ELLX 231620Z 04009KT CAVOK 27/09 Q1023 NOSIG
Vent du 040º - 9 kt
Visibilité > 10 km et plafond haut ou pas de nuages significatifs
Température: +27ºC - Point de rosée: +09ºC - QNH: 1023 hPa
Pas de changement significatif prévu dans les 2 heures qui suivent l'observation